Time;durP1;ratioP1;P1;durP2;ratioP2;P2;SDS_P1;SDS_P2;PMS_P1;PMS_P2;Temp;Humidity;BMP_temperature;BMP_pressure;BME280_temperature;BME280_humidity;BME280_pressure;Samples;Min_cycle;Max_cycle;Signal;HPM_P1;HPM_P2
2022/12/14 00:01:28;;;;;;;12.88;7.43;;;;;;;3.26;50.60;100407.63;5097163;28;20130;-70
2022/12/14 00:03:57;;;;;;;16.70;6.80;;;;;;;3.26;50.93;100404.13;5097183;28;20074;-70
2022/12/14 00:06:27;;;;;;;10.38;6.63;;;;;;;3.25;50.32;100403.31;5100455;28;20055;-71
2022/12/14 00:08:57;;;;;;;13.55;7.35;;;;;;;3.23;50.69;100391.22;5103757;28;20055;-71
2022/12/14 00:11:25;;;;;;;11.18;6.68;;;;;;;3.22;50.14;100390.41;5100002;28;20111;-70
2022/12/14 00:13:55;;;;;;;11.80;6.70;;;;;;;3.23;50.73;100388.56;5093041;28;20116;-70
2022/12/14 00:16:24;;;;;;;14.65;7.38;;;;;;;3.21;50.27;100379.97;5098464;28;20138;-71
2022/12/14 00:18:54;;;;;;;12.82;7.50;;;;;;;3.16;50.10;100369.91;5093629;28;20044;-70
2022/12/14 00:21:24;;;;;;;16.55;6.68;;;;;;;3.21;50.61;100372.00;5097844;28;20111;-70
2022/12/14 00:23:52;;;;;;;10.82;6.47;;;;;;;3.22;50.51;100363.03;5098147;28;20111;-70
2022/12/14 00:26:22;;;;;;;15.05;6.63;;;;;;;3.24;50.16;100372.47;5101150;28;20115;-70
2022/12/14 00:28:52;;;;;;;10.38;6.25;;;;;;;3.22;50.22;100371.00;5105629;28;20075;-71
2022/12/14 00:31:20;;;;;;;11.55;6.55;;;;;;;3.20;50.52;100357.91;5097283;28;20072;-70
2022/12/14 00:33:49;;;;;;;11.05;6.45;;;;;;;3.11;50.50;100331.66;5098459;28;20044;-70
2022/12/14 00:36:17;;;;;;;12.38;6.28;;;;;;;3.22;50.14;100344.44;5100702;28;20040;-70
2022/12/14 00:38:46;;;;;;;11.63;6.50;;;;;;;3.19;50.12;100332.38;5094455;28;20062;-70
2022/12/14 00:41:14;;;;;;;13.63;6.97;;;;;;;3.18;50.14;100337.84;5092166;28;20523;-70
2022/12/14 00:43:41;;;;;;;12.73;7.05;;;;;;;3.17;49.56;100339.69;5097071;28;20505;-70
2022/12/14 00:46:09;;;;;;;15.02;7.05;;;;;;;3.14;50.83;100331.28;5100289;28;20135;-70
2022/12/14 00:48:37;;;;;;;12.18;7.07;;;;;;;3.16;50.24;100335.38;5092859;28;20041;-70
2022/12/14 00:51:05;;;;;;;12.55;6.60;;;;;;;3.15;49.91;100336.41;5102781;28;20046;-70
2022/12/14 00:53:32;;;;;;;11.65;6.50;;;;;;;3.16;50.41;100329.25;5105695;28;20051;-70
2022/12/14 00:56:06;;;;;;;13.07;7.38;;;;;;;3.15;50.48;100332.91;5101352;28;20143;-70
2022/12/14 00:58:34;;;;;;;12.23;6.72;;;;;;;3.15;50.25;100340.88;5102887;28;20067;-70
2022/12/14 01:01:05;;;;;;;11.88;6.65;;;;;;;3.15;50.35;100335.56;5100694;28;20068;-71
2022/12/14 01:03:33;;;;;;;13.27;7.43;;;;;;;3.14;50.14;100331.28;5087882;28;20044;-71
2022/12/14 01:06:02;;;;;;;11.50;6.95;;;;;;;3.15;50.35;100327.59;5099342;28;20059;-72
2022/12/14 01:08:34;;;;;;;12.13;6.65;;;;;;;3.13;49.61;100327.81;5090508;28;20108;-69
2022/12/14 01:11:08;;;;;;;12.02;7.20;;;;;;;3.06;50.24;100321.59;5101130;28;20052;-71
2022/12/14 01:13:37;;;;;;;12.63;6.50;;;;;;;3.11;50.01;100327.16;5103166;28;20150;-71
2022/12/14 01:16:06;;;;;;;10.90;5.85;;;;;;;3.11;49.91;100318.38;5103918;28;20050;-71
2022/12/14 01:18:35;;;;;;;12.48;7.57;;;;;;;3.10;50.51;100314.06;5092817;28;20055;-71
2022/12/14 01:21:10;;;;;;;11.75;6.57;;;;;;;3.09;50.06;100320.38;5094955;28;20044;-71
2022/12/14 01:23:38;;;;;;;11.55;6.55;;;;;;;3.09;49.56;100317.75;5097058;28;20400;-71
2022/12/14 01:26:07;;;;;;;13.05;6.57;;;;;;;3.09;49.77;100317.75;5100393;28;20063;-71
2022/12/14 01:28:35;;;;;;;12.93;7.13;;;;;;;3.05;50.25;100314.63;5096385;28;20048;-71
2022/12/14 01:31:09;;;;;;;15.27;6.95;;;;;;;3.08;50.04;100316.09;5102418;28;20369;-70
2022/12/14 01:33:37;;;;;;;13.90;6.60;;;;;;;3.08;50.15;100310.78;5100100;28;20109;-70
2022/12/14 01:36:06;;;;;;;11.98;7.13;;;;;;;3.08;50.17;100308.13;5089226;28;20045;-70
2022/12/14 01:38:34;;;;;;;13.05;6.93;;;;;;;3.08;50.43;100306.28;5099972;28;20527;-70
2022/12/14 01:41:02;;;;;;;11.00;6.28;;;;;;;3.06;49.93;100307.50;5099637;28;20052;-72
2022/12/14 01:46:32;;;;;;;10.52;6.55;;;;;;;3.06;50.16;100315.47;5093491;27;1249709;-71
2022/12/14 01:49:05;;;;;;;13.45;5.78;;;;;;;3.05;50.48;100314.63;5122321;28;20044;-71
2022/12/14 01:51:35;;;;;;;11.75;6.68;;;;;;;3.06;49.95;100318.09;5123429;28;20047;-71
2022/12/14 01:54:07;;;;;;;11.40;6.53;;;;;;;3.05;49.83;100308.50;5126462;28;20047;-70
2022/12/14 01:56:37;;;;;;;10.25;6.05;;;;;;;3.06;49.71;100310.97;5125078;28;20051;-71
2022/12/14 01:59:11;;;;;;;12.07;6.63;;;;;;;3.05;50.42;100297.88;5121162;28;20051;-71
2022/12/14 02:01:41;;;;;;;10.23;6.05;;;;;;;3.05;49.59;100300.53;5133708;28;20119;-70
2022/12/14 02:04:11;;;;;;;14.07;6.38;;;;;;;3.03;50.49;100300.72;5129758;28;20106;-71
2022/12/14 02:06:42;;;;;;;11.80;6.75;;;;;;;3.03;50.18;100300.72;5124832;28;20058;-70
2022/12/14 02:09:16;;;;;;;11.27;5.88;;;;;;;3.01;50.24;100289.47;5115262;28;20062;-70
2022/12/14 02:11:51;;;;;;;11.50;6.70;;;;;;;3.01;49.80;100294.78;5125706;28;20055;-71
2022/12/14 02:14:19;;;;;;;13.02;6.80;;;;;;;3.01;50.00;100286.00;5110397;28;20048;-71
2022/12/14 02:16:50;;;;;;;13.00;7.07;;;;;;;3.01;50.16;100286.81;5126693;28;20039;-70
2022/12/14 02:19:18;;;;;;;11.57;6.22;;;;;;;3.00;50.35;100277.19;5108425;28;20040;-71
2022/12/14 02:22:03;;;;;;;11.73;6.53;;;;;;;3.00;49.61;100285.16;5119658;28;20047;-71
2022/12/14 02:25:01;;;;;;;12.30;6.93;;;;;;;3.00;49.82;100284.34;5118916;28;21125;-70
2022/12/14 02:27:50;;;;;;;10.43;6.47;;;;;;;2.98;50.17;100284.53;5122286;28;20735;-71
2022/12/14 02:30:21;;;;;;;12.95;6.85;;;;;;;2.98;49.57;100273.91;5118876;28;20484;-71
2022/12/14 02:33:15;;;;;;;10.93;5.72;;;;;;;2.98;49.96;100273.09;5124038;28;20054;-70
2022/12/14 02:35:48;;;;;;;10.63;6.38;;;;;;;2.96;50.02;100272.47;5121098;28;20131;-70
2022/12/14 02:38:27;;;;;;;10.82;6.20;;;;;;;2.95;49.64;100284.91;5119902;28;20120;-70
2022/12/14 02:41:04;;;;;;;11.30;6.38;;;;;;;2.97;49.95;100282.06;5110582;28;20052;-71
2022/12/14 02:43:38;;;;;;;11.35;6.03;;;;;;;2.97;49.28;100268.78;5125013;28;20506;-69
2022/12/14 02:46:18;;;;;;;10.40;6.30;;;;;;;2.98;49.60;100262.47;5127370;28;20111;-71
2022/12/14 02:48:53;;;;;;;12.25;5.80;;;;;;;2.95;49.60;100263.66;5118902;28;20139;-70
2022/12/14 02:51:26;;;;;;;9.38;6.00;;;;;;;2.96;49.86;100262.66;5125009;28;20491;-71
2022/12/14 02:54:00;;;;;;;9.60;6.10;;;;;;;2.91;49.26;100268.53;5117563;28;20048;-71
2022/12/14 02:56:35;;;;;;;11.43;6.28;;;;;;;2.93;49.80;100279.78;5115643;28;20047;-71
2022/12/14 02:59:08;;;;;;;10.32;6.00;;;;;;;2.91;49.63;100279.16;5112051;28;20060;-70
2022/12/14 03:01:39;;;;;;;11.07;6.78;;;;;;;2.90;50.21;100266.06;5112603;28;20052;-70
2022/12/14 03:04:07;;;;;;;9.40;5.55;;;;;;;2.89;49.62;100267.06;5106765;28;20054;-68
2022/12/14 03:06:35;;;;;;;11.27;5.90;;;;;;;2.88;49.77;100276.03;5110037;28;20292;-71
2022/12/14 03:09:07;;;;;;;10.75;6.00;;;;;;;2.89;49.52;100275.03;5105771;28;20059;-70
2022/12/14 03:11:41;;;;;;;9.23;5.97;;;;;;;2.88;50.17;100270.72;5104705;28;20143;-70
2022/12/14 03:14:15;;;;;;;10.43;6.55;;;;;;;2.88;49.74;100265.44;5104141;28;20066;-70
2022/12/14 03:16:48;;;;;;;11.23;6.22;;;;;;;2.88;49.57;100258.28;5106162;28;20046;-71
2022/12/14 03:19:21;;;;;;;12.07;6.75;;;;;;;2.87;49.71;100263.78;5101644;28;20055;-70
2022/12/14 03:21:54;;;;;;;9.98;6.25;;;;;;;2.86;49.78;100262.97;5101587;28;20072;-69
2022/12/14 03:24:25;;;;;;;9.85;5.97;;;;;;;2.84;50.05;100245.56;5103315;28;20107;-70
2022/12/14 03:26:57;;;;;;;9.75;5.75;;;;;;;2.83;49.68;100247.41;5113483;28;20044;-70
2022/12/14 03:29:28;;;;;;;11.18;6.13;;;;;;;2.84;49.63;100241.09;5102831;28;20050;-70
2022/12/14 03:32:00;;;;;;;12.57;6.55;;;;;;;2.84;48.84;100238.44;5109769;28;20062;-69
2022/12/14 03:34:33;;;;;;;9.75;6.18;;;;;;;2.85;49.88;100236.59;5100286;28;20138;-70
2022/12/14 03:37:09;;;;;;;10.63;5.93;;;;;;;2.83;49.33;100226.19;5107780;28;20064;-69
2022/12/14 03:39:38;;;;;;;10.00;5.50;;;;;;;2.79;49.96;100218.78;5109088;28;20120;-70
2022/12/14 03:42:15;;;;;;;8.43;5.80;;;;;;;2.82;50.06;100223.72;5119068;28;20572;-70
2022/12/14 03:44:48;;;;;;;9.15;5.35;;;;;;;2.82;50.23;100224.53;5103962;28;20143;-70
2022/12/14 03:47:44;;;;;;;10.18;5.75;;;;;;;2.81;49.48;100224.72;5115413;28;20069;-72
2022/12/14 03:50:16;;;;;;;10.63;6.00;;;;;;;2.72;50.01;100200.13;5102094;28;20056;-71
2022/12/14 03:52:53;;;;;;;11.05;5.57;;;;;;;2.83;49.73;100218.22;5097006;28;20044;-70
2022/12/14 03:55:27;;;;;;;8.93;5.72;;;;;;;2.82;49.38;100219.22;5110364;28;20039;-71
2022/12/14 03:58:17;;;;;;;11.02;5.70;;;;;;;2.80;49.66;100209.81;5120934;28;20058;-70
2022/12/14 04:00:51;;;;;;;10.18;5.30;;;;;;;2.78;49.79;100207.34;5105477;28;20060;-71
2022/12/14 04:03:29;;;;;;;9.40;5.03;;;;;;;2.78;49.81;100206.53;5107233;28;20055;-70
2022/12/14 04:06:02;;;;;;;9.68;5.43;;;;;;;2.79;49.81;100208.16;5107848;28;20043;-70
2022/12/14 04:08:37;;;;;;;10.35;5.82;;;;;;;2.78;49.50;100195.91;5101327;28;20058;-70
2022/12/14 04:19:41;;;;;;;9.38;5.57;;;;;;;2.76;49.73;100176.69;5101624;28;20075;-70
2022/12/14 04:22:14;;;;;;;10.82;5.88;;;;;;;2.75;49.43;100178.53;5106752;28;20080;-70
2022/12/14 04:27:37;;;;;;;8.85;5.53;;;;;;;2.74;49.71;100176.06;5101753;28;20046;-70
2022/12/14 04:30:06;;;;;;;10.02;5.30;;;;;;;2.74;50.17;100168.94;5103327;28;20048;-71
2022/12/14 04:32:38;;;;;;;12.07;6.00;;;;;;;2.75;49.05;100167.91;5106148;28;20056;-70
2022/12/14 04:35:12;;;;;;;11.35;5.50;;;;;;;2.74;49.09;100170.75;5100678;28;20051;-71
2022/12/14 04:37:44;;;;;;;9.63;5.57;;;;;;;2.74;49.35;100171.56;5104216;28;20046;-70
2022/12/14 04:40:19;;;;;;;8.05;5.10;;;;;;;2.73;49.24;100161.97;5104558;28;20130;-70
2022/12/14 04:42:52;;;;;;;11.27;5.45;;;;;;;2.73;49.32;100166.47;5114332;28;20184;-70
2022/12/14 04:45:25;;;;;;;10.48;5.85;;;;;;;2.72;49.93;100157.69;5110502;28;20398;-69
2022/12/14 04:47:59;;;;;;;9.50;5.43;;;;;;;2.72;49.48;100160.34;5106818;28;20048;-70
2022/12/14 04:50:34;;;;;;;11.60;5.75;;;;;;;2.73;48.95;100156.66;5104927;28;20055;-71
2022/12/14 04:53:10;;;;;;;14.15;5.90;;;;;;;2.73;49.98;100158.50;5101810;28;20044;-71
2022/12/14 04:55:44;;;;;;;8.77;5.10;;;;;;;2.70;49.77;100151.75;5104258;28;20044;-71
2022/12/14 04:58:18;;;;;;;;;;;;;;;2.72;49.83;100154.22;5107120;28;20131;-71
2022/12/14 05:00:58;;;;;;;9.93;4.75;;;;;;;2.71;50.04;100149.91;5104235;28;20416;-71
2022/12/14 05:03:29;;;;;;;12.05;5.53;;;;;;;2.72;49.53;100155.03;5112470;28;20052;-69
2022/12/14 05:06:08;;;;;;;8.85;5.68;;;;;;;2.72;49.50;100146.25;5098762;28;20051;-71
2022/12/14 05:08:52;;;;;;;10.65;5.38;;;;;;;2.70;49.95;100156.22;5098311;28;20060;-70
2022/12/14 05:11:26;;;;;;;8.23;5.22;;;;;;;2.71;49.94;100161.34;5099883;28;20048;-70
2022/12/14 05:14:19;;;;;;;9.85;5.68;;;;;;;2.70;49.80;100151.75;5098689;28;20539;-70
2022/12/14 05:16:49;;;;;;;9.55;5.40;;;;;;;2.71;49.71;100148.06;5102574;28;20183;-70
2022/12/14 05:19:16;;;;;;;10.27;5.00;;;;;;;2.69;50.08;100144.78;5106811;28;20051;-70
2022/12/14 05:21:48;;;;;;;10.23;6.10;;;;;;;2.70;49.75;100140.31;5102470;28;20059;-70
2022/12/14 05:24:17;;;;;;;9.52;5.60;;;;;;;2.70;50.13;100140.31;5109297;28;20115;-70
2022/12/14 05:26:44;;;;;;;10.23;5.57;;;;;;;2.70;49.68;100129.69;5108935;28;20131;-69
2022/12/14 05:29:13;;;;;;;9.93;5.70;;;;;;;2.69;50.06;100134.19;5103934;28;20061;-70
2022/12/14 05:31:41;;;;;;;10.45;5.78;;;;;;;2.67;49.32;100136.19;5107751;28;20052;-70
2022/12/14 05:34:15;;;;;;;11.85;5.95;;;;;;;2.68;49.88;100129.88;5101863;28;20052;-70
2022/12/14 05:36:43;;;;;;;10.98;4.70;;;;;;;2.69;49.33;100128.06;5096185;28;20039;-70
2022/12/14 05:39:12;;;;;;;10.13;5.85;;;;;;;2.67;49.26;100128.25;5101656;28;20040;-70
2022/12/14 05:41:40;;;;;;;9.23;5.72;;;;;;;2.68;49.86;100123.75;5101933;28;20047;-70
2022/12/14 05:44:08;;;;;;;12.00;5.50;;;;;;;2.65;49.77;100116.16;5099941;28;20054;-70
2022/12/14 05:46:36;;;;;;;10.20;5.63;;;;;;;2.66;49.73;100121.28;5103392;28;20576;-70
2022/12/14 05:49:03;;;;;;;9.15;5.38;;;;;;;2.66;50.06;100118.63;5095423;28;20048;-71
2022/12/14 05:51:31;;;;;;;9.52;5.70;;;;;;;2.66;49.32;100125.78;5108765;28;20040;-70
2022/12/14 05:53:59;;;;;;;9.30;5.78;;;;;;;2.65;49.45;100119.66;5097804;28;20160;-71
2022/12/14 05:56:28;;;;;;;11.23;5.75;;;;;;;2.68;49.95;100121.09;5102465;28;20112;-71
2022/12/14 05:58:56;;;;;;;8.77;5.05;;;;;;;2.65;49.96;100129.44;5100106;28;20165;-72
2022/12/14 06:01:24;;;;;;;10.30;5.10;;;;;;;2.66;50.08;100128.44;5106020;28;20424;-72
2022/12/14 06:03:52;;;;;;;9.48;5.45;;;;;;;2.63;49.93;100126.97;5100688;28;20139;-72
2022/12/14 06:06:20;;;;;;;10.07;5.05;;;;;;;2.59;50.02;100121.22;5110158;28;20126;-71
2022/12/14 06:08:48;;;;;;;10.50;5.53;;;;;;;2.63;49.64;100123.50;5106516;28;20043;-68
2022/12/14 06:11:17;;;;;;;9.88;5.15;;;;;;;2.71;49.21;100115.41;5098707;28;20043;-68
2022/12/14 06:13:47;;;;;;;10.10;5.20;;;;;;;2.85;49.58;100119.84;5098173;28;20071;-77
2022/12/14 06:16:17;;;;;;;8.63;5.03;;;;;;;2.93;49.48;100117.88;5105767;28;20040;-73
2022/12/14 06:18:47;;;;;;;8.07;4.57;;;;;;;3.05;49.05;100112.88;5114340;28;20069;-73
2022/12/14 06:21:16;;;;;;;8.70;4.88;;;;;;;3.28;48.60;100114.50;5105645;28;20044;-71
2022/12/14 06:23:44;;;;;;;9.57;5.50;;;;;;;3.43;48.58;100117.88;5113041;28;20053;-72
2022/12/14 06:26:13;;;;;;;10.13;5.80;;;;;;;3.58;47.95;100121.22;5105993;28;20377;-73
2022/12/14 06:28:41;;;;;;;9.38;4.78;;;;;;;3.74;46.76;100114.78;5111433;28;20051;-71
2022/12/14 06:31:15;;;;;;;9.55;5.72;;;;;;;3.92;46.88;100117.75;5098167;28;20497;-73
2022/12/14 06:33:43;;;;;;;10.63;5.72;;;;;;;3.96;46.14;100105.72;5103363;28;20048;-72
2022/12/14 06:36:17;;;;;;;10.98;5.50;;;;;;;4.13;46.43;100125.66;5112444;28;20058;-71
2022/12/14 06:38:45;;;;;;;8.85;5.05;;;;;;;4.22;45.54;100127.13;5110477;28;20222;-71
2022/12/14 06:41:13;;;;;;;9.57;5.63;;;;;;;4.31;46.33;100114.47;5101532;28;20076;-72
2022/12/14 06:43:41;;;;;;;10.00;5.82;;;;;;;4.42;46.00;100113.06;5109208;28;20138;-72
2022/12/14 06:46:09;;;;;;;8.95;5.03;;;;;;;4.48;45.67;100106.94;5104127;28;20052;-71
2022/12/14 06:48:44;;;;;;;10.18;5.55;;;;;;;4.51;45.52;100110.03;5104811;28;20054;-79
2022/12/14 06:51:12;;;;;;;10.82;5.28;;;;;;;4.55;45.86;100110.44;4748363;28;10000560;-70
2022/12/14 06:53:39;;;;;;;9.73;5.82;;;;;;;4.47;45.60;100114.13;5107246;28;20079;-75
2022/12/14 06:56:08;;;;;;;9.27;5.55;;;;;;;4.35;45.75;100112.22;5095359;28;20044;-72
2022/12/14 06:58:36;;;;;;;8.15;5.13;;;;;;;4.16;46.83;100119.09;5102795;28;20051;-74
2022/12/14 07:01:06;;;;;;;9.48;5.95;;;;;;;3.97;46.50;100111.84;5103034;28;20048;-74
2022/12/14 07:03:34;;;;;;;9.80;5.47;;;;;;;3.80;46.58;100122.00;5104862;28;20071;-73
2022/12/14 07:06:04;;;;;;;9.85;5.28;;;;;;;3.67;47.02;100121.91;5102015;28;20052;-70
2022/12/14 07:08:35;;;;;;;9.18;5.10;;;;;;;3.59;47.34;100123.69;5101473;28;20051;-72
2022/12/14 07:11:03;;;;;;;10.15;5.70;;;;;;;3.50;48.15;100132.84;5099883;28;20067;-72
2022/12/14 07:13:31;;;;;;;11.20;5.75;;;;;;;3.43;47.64;100136.47;5112341;28;20075;-68
2022/12/14 07:16:00;;;;;;;11.25;6.65;;;;;;;3.35;47.68;100132.13;5100934;28;20063;-68
2022/12/14 07:18:29;;;;;;;9.27;5.15;;;;;;;3.17;48.41;100124.63;5102071;28;20052;-69
2022/12/14 07:20:57;;;;;;;11.85;6.10;;;;;;;3.12;48.51;100128.88;5112440;28;20421;-69
2022/12/14 07:23:28;;;;;;;12.43;6.05;;;;;;;3.09;48.98;100129.25;5108145;28;20519;-68
2022/12/14 07:26:01;;;;;;;9.68;5.20;;;;;;;3.09;48.58;100134.56;5096785;28;20081;-68
2022/12/14 07:28:29;;;;;;;10.18;6.10;;;;;;;3.06;48.79;100135.75;5093750;28;20108;-65
2022/12/14 07:30:58;;;;;;;10.15;5.60;;;;;;;3.04;48.70;100147.59;5103211;28;20083;-67
2022/12/14 07:33:28;;;;;;;9.23;5.68;;;;;;;3.00;49.18;100136.53;5114009;28;20098;-68
2022/12/14 07:36:02;;;;;;;8.82;4.72;;;;;;;3.00;48.94;100136.53;5111054;28;20073;-67
2022/12/14 07:38:32;;;;;;;10.27;5.65;;;;;;;3.00;49.28;100136.53;5112911;28;20051;-71
2022/12/14 07:41:04;;;;;;;11.90;6.15;;;;;;;2.96;49.90;100145.88;5108342;28;20408;-70
2022/12/14 07:43:33;;;;;;;11.75;5.80;;;;;;;2.92;49.63;100132.16;5108936;28;20111;-68
2022/12/14 07:46:01;;;;;;;9.90;5.57;;;;;;;2.93;49.06;100138.28;5115534;28;20390;-70
2022/12/14 07:48:30;;;;;;;11.93;6.38;;;;;;;2.87;49.49;100129.25;5103388;28;20074;-71
2022/12/14 07:51:02;;;;;;;8.85;5.53;;;;;;;2.90;49.88;100139.50;5123297;28;20046;-69
2022/12/14 07:53:31;;;;;;;11.80;6.22;;;;;;;2.88;49.82;100146.00;5106290;28;20058;-67
2022/12/14 07:56:03;;;;;;;10.57;5.88;;;;;;;2.87;49.66;100144.34;5116938;28;20070;-67
2022/12/14 07:58:31;;;;;;;10.10;5.68;;;;;;;2.85;49.58;100139.25;5091674;28;20045;-65
2022/12/14 08:01:12;;;;;;;11.77;5.70;;;;;;;2.86;49.49;100142.72;5099178;28;20048;-68
2022/12/14 08:03:41;;;;;;;10.18;6.10;;;;;;;2.83;49.52;100141.25;5109729;28;20424;-67
2022/12/14 08:06:10;;;;;;;12.48;5.88;;;;;;;2.82;49.77;100134.31;5101884;28;20048;-67
2022/12/14 08:08:39;;;;;;;10.32;5.72;;;;;;;2.80;49.83;100141.63;5104861;28;20044;-68
2022/12/14 08:11:08;;;;;;;10.90;5.90;;;;;;;2.82;49.76;100146.75;5105785;28;20074;-68
2022/12/14 08:13:37;;;;;;;11.27;5.72;;;;;;;2.78;49.67;100148.97;5094142;28;20063;-67
2022/12/14 08:16:07;;;;;;;9.85;5.97;;;;;;;2.77;49.87;100143.84;5105443;28;20047;-67
2022/12/14 08:18:35;;;;;;;9.55;6.07;;;;;;;2.76;49.45;100144.84;5118956;28;20055;-67
2022/12/14 08:21:05;;;;;;;12.27;5.97;;;;;;;2.75;49.57;100152.00;5098880;28;20135;-67
2022/12/14 08:23:33;;;;;;;10.43;5.95;;;;;;;2.74;49.87;100153.00;5105239;28;20054;-67
2022/12/14 08:26:04;;;;;;;10.13;5.65;;;;;;;2.76;49.59;100150.16;5105220;28;20079;-68
2022/12/14 08:28:33;;;;;;;9.23;5.70;;;;;;;2.74;49.92;100144.22;5105404;28;20052;-65
2022/12/14 08:31:04;;;;;;;12.85;6.15;;;;;;;2.75;49.33;100152.00;5098585;28;20108;-67
2022/12/14 08:33:32;;;;;;;10.70;5.35;;;;;;;2.72;49.94;100149.72;5102384;28;20135;-67
2022/12/14 08:36:05;;;;;;;9.50;5.50;;;;;;;2.74;49.34;100157.50;5093843;28;20075;-67
2022/12/14 08:38:33;;;;;;;10.43;5.82;;;;;;;2.74;49.37;100163.63;5108080;28;20047;-67
2022/12/14 08:41:07;;;;;;;9.02;5.50;;;;;;;2.72;49.09;100159.50;5106373;28;20501;-66
2022/12/14 08:43:35;;;;;;;14.60;6.75;;;;;;;2.72;48.94;100159.50;5091885;28;20143;-66
2022/12/14 08:46:05;;;;;;;12.77;6.18;;;;;;;2.70;49.73;100162.34;5103205;28;20086;-67
2022/12/14 08:48:33;;;;;;;12.57;6.32;;;;;;;2.76;49.44;100158.94;5102696;28;20040;-67
2022/12/14 08:51:02;;;;;;;12.15;6.13;;;;;;;2.91;48.98;100162.38;5105158;28;20058;-68
2022/12/14 08:53:30;;;;;;;15.77;6.47;;;;;;;3.05;48.76;100163.31;5097464;28;20050;-66
2022/12/14 08:55:59;;;;;;;11.70;6.18;;;;;;;3.18;48.63;100167.94;5103890;28;20055;-68
2022/12/14 08:58:28;;;;;;;10.90;6.20;;;;;;;3.31;47.93;100178.69;5108822;28;20074;-67
2022/12/14 09:01:03;;;;;;;14.52;6.63;;;;;;;3.40;47.59;100176.72;5098146;28;20084;-67
2022/12/14 09:03:31;;;;;;;12.82;6.00;;;;;;;3.41;47.42;100175.69;5114357;28;20047;-67
2022/12/14 09:06:04;;;;;;;13.95;6.68;;;;;;;3.35;48.00;100181.78;5106041;28;20054;-67
2022/12/14 09:08:32;;;;;;;12.63;6.55;;;;;;;3.26;47.63;100178.44;5089436;28;20091;-67
2022/12/14 09:11:00;;;;;;;13.68;7.13;;;;;;;3.17;48.02;100163.63;5104267;28;20051;-68
2022/12/14 09:13:29;;;;;;;14.75;6.82;;;;;;;3.11;48.72;100167.88;5103823;28;20071;-67
2022/12/14 09:15:59;;;;;;;13.75;7.18;;;;;;;3.04;49.03;100163.50;5095965;28;20055;-68
2022/12/14 09:18:27;;;;;;;12.27;6.78;;;;;;;2.99;48.97;100171.22;5103600;28;20044;-67
2022/12/14 09:20:57;;;;;;;16.38;8.35;;;;;;;2.96;49.24;100176.91;5104660;28;20104;-67
2022/12/14 09:23:27;;;;;;;12.07;6.57;;;;;;;2.92;48.83;100179.94;5109958;28;20243;-69
2022/12/14 09:26:00;;;;;;;12.88;6.13;;;;;;;2.91;48.48;100183.59;5105929;28;20051;-67
2022/12/14 09:28:30;;;;;;;16.95;7.60;;;;;;;2.86;49.34;100180.69;5097976;28;20197;-66
2022/12/14 09:31:00;;;;;;;15.18;7.22;;;;;;;2.87;49.27;100177.03;5104019;28;20071;-68
2022/12/14 09:33:29;;;;;;;13.25;7.03;;;;;;;2.82;49.33;100176.78;5106178;28;20047;-67
2022/12/14 09:36:02;;;;;;;15.82;7.75;;;;;;;2.72;49.56;100170.13;5099965;28;20048;-67
2022/12/14 09:38:31;;;;;;;9.27;5.55;;;;;;;2.79;49.35;100177.16;5107234;28;20047;-68
2022/12/14 09:41:01;;;;;;;16.15;7.38;;;;;;;2.65;49.47;100167.41;5107568;28;20388;-68
2022/12/14 09:43:40;;;;;;;14.27;6.70;;;;;;;2.69;49.37;100189.06;5089519;28;20136;-67
2022/12/14 09:46:21;;;;;;;13.68;6.93;;;;;;;2.69;50.00;100194.38;5085912;28;20056;-68
2022/12/14 09:48:49;;;;;;;13.57;7.75;;;;;;;2.66;49.87;100192.91;5099115;28;20040;-68
2022/12/14 09:51:20;;;;;;;12.38;6.70;;;;;;;2.66;50.03;100200.06;5104075;28;20055;-68
2022/12/14 09:53:54;;;;;;;11.48;6.63;;;;;;;2.70;49.77;100196.00;5103733;28;20111;-68
2022/12/14 09:56:28;;;;;;;12.98;7.53;;;;;;;2.66;49.51;100197.41;5096772;28;20066;-68
2022/12/14 09:59:00;;;;;;;20.58;8.30;;;;;;;2.66;50.09;100197.41;5100569;28;20044;-67
2022/12/14 10:02:02;;;;;;;12.20;6.70;;;;;;;2.65;49.65;100185.97;5115169;28;20048;-67
2022/12/14 10:05:03;;;;;;;12.52;6.72;;;;;;;2.67;49.87;100177.81;5019899;28;20050;-67
2022/12/14 10:07:40;;;;;;;13.35;6.55;;;;;;;2.67;49.96;100185.78;5024518;28;20278;-67
2022/12/14 10:10:19;;;;;;;16.55;7.65;;;;;;;2.67;49.93;100189.25;5018630;28;20172;-68
2022/12/14 10:12:57;;;;;;;12.35;7.13;;;;;;;2.60;50.43;100185.69;5014368;28;20046;-68
2022/12/14 10:15:31;;;;;;;12.27;6.30;;;;;;;2.70;50.11;100190.72;5023441;28;20046;-67
2022/12/14 10:18:38;;;;;;;12.30;7.30;;;;;;;2.71;49.50;100189.69;5024650;28;20554;-68
2022/12/14 10:21:31;;;;;;;15.98;6.80;;;;;;;2.71;50.06;100195.00;4986010;28;20055;-68
2022/12/14 10:24:02;;;;;;;17.23;7.95;;;;;;;2.70;50.28;100191.53;4985225;28;20070;-67
2022/12/14 10:26:35;;;;;;;12.10;7.20;;;;;;;2.72;50.79;100189.50;4976029;28;20066;-67
2022/12/14 10:29:07;;;;;;;9.60;6.25;;;;;;;2.73;49.97;100185.03;4983541;28;20047;-67
2022/12/14 10:31:44;;;;;;;16.13;7.40;;;;;;;2.75;50.26;100183.84;4980170;28;20061;-67
2022/12/14 10:34:18;;;;;;;15.23;7.30;;;;;;;2.76;50.28;100180.16;4984890;28;20063;-68
2022/12/14 10:36:54;;;;;;;13.40;7.18;;;;;;;2.79;50.75;100179.78;4985713;28;20125;-68
2022/12/14 10:39:33;;;;;;;16.77;6.35;;;;;;;2.82;50.72;100178.59;5035435;28;20049;-68
2022/12/14 10:42:09;;;;;;;10.13;5.95;;;;;;;2.81;50.68;100177.78;5059982;28;20073;-68
2022/12/14 10:44:46;;;;;;;16.85;6.75;;;;;;;2.83;50.88;100183.72;5055547;28;20044;-68
2022/12/14 10:47:25;;;;;;;11.57;6.70;;;;;;;2.83;49.98;100181.06;5063174;28;20060;-67
2022/12/14 10:49:59;;;;;;;13.73;6.93;;;;;;;2.83;50.48;100183.72;5062805;28;20100;-67
2022/12/14 10:52:35;;;;;;;12.73;6.72;;;;;;;2.84;50.41;100181.88;5063650;28;20079;-67
2022/12/14 10:55:06;;;;;;;12.45;6.72;;;;;;;2.75;50.34;100162.63;5061676;28;20055;-68
2022/12/14 10:57:34;;;;;;;13.20;6.43;;;;;;;2.77;51.09;100175.69;5091610;28;20036;-63
2022/12/14 11:00:03;;;;;;;12.85;6.50;;;;;;;2.82;50.49;100186.56;5102262;28;20059;-66
2022/12/14 11:02:40;;;;;;;15.13;6.78;;;;;;;2.90;50.55;100183.78;5103424;28;20084;-65
2022/12/14 11:05:23;;;;;;;17.75;7.13;;;;;;;2.98;49.97;100169.56;5104138;28;20063;-66
2022/12/14 11:07:51;;;;;;;12.48;6.82;;;;;;;3.22;49.08;100175.34;5100380;28;20050;-66
2022/12/14 11:10:22;;;;;;;13.45;7.00;;;;;;;3.43;48.80;100186.94;5105199;28;20051;-66
2022/12/14 11:13:01;;;;;;;14.55;6.95;;;;;;;3.57;48.30;100189.50;5112584;28;20044;-66
2022/12/14 11:15:33;;;;;;;11.20;6.30;;;;;;;3.76;49.07;100184.50;5102174;28;20346;-66
2022/12/14 11:18:26;;;;;;;12.27;6.95;;;;;;;3.96;47.71;100193.44;5105500;28;20048;-65
2022/12/14 11:20:58;;;;;;;14.02;7.00;;;;;;;4.15;47.71;100191.94;5091777;28;20083;-65
2022/12/14 11:23:27;;;;;;;11.80;6.32;;;;;;;4.27;46.83;100179.72;5099032;28;20062;-66
2022/12/14 11:25:58;;;;;;;12.27;6.57;;;;;;;4.39;47.00;100193.28;5094621;28;20074;-66
2022/12/14 11:28:31;;;;;;;12.50;6.65;;;;;;;4.51;46.56;100189.03;5095146;28;20425;-66
2022/12/14 11:31:06;;;;;;;10.95;6.03;;;;;;;4.52;45.61;100182.69;5103639;28;20043;-66
2022/12/14 11:33:39;;;;;;;11.75;7.18;;;;;;;4.61;45.55;100189.47;5103895;28;20066;-66
2022/12/14 11:36:08;;;;;;;12.80;6.25;;;;;;;4.68;46.25;100186.84;5092809;28;20102;-67
2022/12/14 11:38:36;;;;;;;14.07;7.90;;;;;;;4.74;45.86;100188.72;5105426;28;20078;-67
2022/12/14 11:41:04;;;;;;;11.05;6.93;;;;;;;4.68;45.65;100187.66;5104865;28;20660;-67
2022/12/14 11:43:38;;;;;;;12.18;6.60;;;;;;;4.54;45.62;100181.47;5098675;28;20103;-67
2022/12/14 11:46:06;;;;;;;11.60;6.65;;;;;;;4.39;46.09;100183.47;5095223;28;20059;-67
2022/12/14 11:48:38;;;;;;;12.68;6.82;;;;;;;4.21;46.27;100191.97;5102425;28;20124;-67
2022/12/14 11:51:10;;;;;;;10.98;7.50;;;;;;;4.06;46.83;100182.47;5103263;28;20046;-67
2022/12/14 11:53:39;;;;;;;14.48;7.00;;;;;;;3.95;48.15;100190.97;5105079;28;20067;-67
2022/12/14 11:56:11;;;;;;;12.50;6.97;;;;;;;3.85;47.96;100189.50;5106251;28;20055;-67
2022/12/14 11:58:46;;;;;;;12.60;7.50;;;;;;;3.75;47.58;100191.66;5102185;28;20521;-66
2022/12/14 12:01:17;;;;;;;15.00;8.05;;;;;;;3.68;48.05;100189.97;5104602;28;20174;-66
2022/12/14 12:03:49;;;;;;;11.30;6.85;;;;;;;3.62;48.51;100183.59;5104749;28;20048;-66